Time;durP1;ratioP1;P1;durP2;ratioP2;P2;SDS_P1;SDS_P2;PMS_P1;PMS_P2;Temp;Humidity;BMP_temperature;BMP_pressure;BME280_temperature;BME280_humidity;BME280_pressure;Samples;Min_cycle;Max_cycle;Signal;HPM_P1;HPM_P2
2022/07/02 00:01:52;;;;;;;;;;;640.50;2432.00;;;;;;5073742;28;19905;-59
2022/07/02 00:04:25;;;;;;;;;;;640.20;2432.00;;;;;;5074081;28;19904;-58
2022/07/02 00:06:51;;;;;;;;;;;640.20;2432.00;;;;;;5073800;28;20354;-67
2022/07/02 00:09:17;;;;;;;;;;;640.10;2432.00;;;;;;5073893;28;20370;-58
2022/07/02 00:11:43;;;;;;;;;;;640.10;2432.00;;;;;;5073782;28;19951;-60
2022/07/02 00:14:09;;;;;;;;;;;640.00;2432.00;;;;;;5073789;28;19950;-67
2022/07/02 00:16:35;;;;;;;;;;;640.00;2432.00;;;;;;5073662;28;19912;-64
2022/07/02 00:19:00;;;;;;;;;;;640.00;2432.00;;;;;;5073599;28;19904;-67
2022/07/02 00:21:26;;;;;;;;;;;640.00;2432.00;;;;;;5073662;28;19904;-59
2022/07/02 00:23:51;;;;;;;;;;;640.00;2432.00;;;;;;5073494;28;19970;-59
2022/07/02 00:26:37;;;;;;;;;;;640.00;2432.00;;;;;;5073631;28;19951;-68
2022/07/02 00:29:19;;;;;;;;;;;640.00;2432.00;;;;;;5072686;28;20369;-57
2022/07/02 00:31:47;;;;;;;;;;;640.00;2432.00;;;;;;5073471;28;20373;-67
2022/07/02 00:34:13;;;;;;;;;;;640.10;2432.00;;;;;;5073217;28;19911;-65
2022/07/02 00:36:39;;;;;;;;;;;640.20;2432.00;;;;;;5073528;28;19904;-68
2022/07/02 00:39:05;;;;;;;;;;;640.20;2432.00;;;;;;5073509;28;20008;-60
2022/07/02 00:41:32;;;;;;;;;;;640.20;2432.00;;;;;;5073385;28;19952;-64
2022/07/02 00:43:57;;;;;;;;;;;640.10;2432.00;;;;;;5073166;28;19956;-59
2022/07/02 00:46:24;;;;;;;;;;;615.30;2432.00;;;;;;5073064;28;19955;-67
2022/07/02 00:48:50;;;;;;;;;;;640.00;2432.00;;;;;;5073200;28;20334;-67
2022/07/02 00:51:16;;;;;;;;;;;640.00;2432.00;;;;;;5073245;28;20282;-67
2022/07/02 00:53:42;;;;;;;;;;;640.00;2432.00;;;;;;5072816;28;19961;-65
2022/07/02 00:56:07;;;;;;;;;;;640.00;2432.00;;;;;;5073239;28;19905;-59
2022/07/02 00:58:33;;;;;;;;;;;640.00;2432.00;;;;;;5072700;28;19915;-60
2022/07/02 01:00:59;;;;;;;;;;;640.10;2432.00;;;;;;5072984;28;19909;-59
2022/07/02 01:03:25;;;;;;;;;;;640.10;2432.00;;;;;;5072744;28;19916;-59
2022/07/02 01:05:51;;;;;;;;;;;640.10;2432.00;;;;;;5072802;28;19973;-59
2022/07/02 01:11:12;;;;;;;;;;;615.10;2432.00;;;;;;5010657;28;19976;-59
2022/07/02 01:13:38;;;;;;;;;;;614.80;2432.00;;;;;;5011012;28;20392;-59
2022/07/02 01:16:04;;;;;;;;;;;614.70;2432.00;;;;;;5010735;28;19912;-59
2022/07/02 01:18:29;;;;;;;;;;;614.80;2432.00;;;;;;5010574;28;19905;-59
2022/07/02 01:20:55;;;;;;;;;;;614.80;2432.00;;;;;;5010823;28;20304;-59
2022/07/02 01:23:21;;;;;;;;;;;614.80;2432.00;;;;;;5010537;28;19924;-59
2022/07/02 01:25:50;;;;;;;;;;;614.70;2432.00;;;;;;5010689;28;19935;-67
2022/07/02 01:28:16;;;;;;;;;;;614.60;2432.00;;;;;;5010461;28;19909;-63
2022/07/02 01:30:41;;;;;;;;;;;614.50;2432.00;;;;;;5010586;28;19913;-65
2022/07/02 01:33:07;;;;;;;;;;;614.40;2432.00;;;;;;5010387;28;19905;-57
2022/07/02 01:35:32;;;;;;;;;;;614.40;2432.00;;;;;;5010491;28;19912;-59
2022/07/02 01:37:58;;;;;;;;;;;614.60;2432.00;;;;;;5010645;28;20029;-56
2022/07/02 01:40:23;;;;;;;;;;;614.50;2432.00;;;;;;5010323;28;19910;-56
2022/07/02 01:42:49;;;;;;;;;;;614.40;2432.00;;;;;;5010235;28;19967;-58
2022/07/02 01:45:14;;;;;;;;;;;614.70;2432.00;;;;;;5010359;28;20000;-57
2022/07/02 01:47:40;;;;;;;;;;;614.70;2432.00;;;;;;5043240;28;19904;-58
2022/07/02 01:50:06;;;;;;;;;;;614.70;2432.00;;;;;;5072107;28;20248;-59
2022/07/02 01:52:32;;;;;;;;;;;614.70;2432.00;;;;;;5072059;28;19909;-57
2022/07/02 01:54:57;;;;;;;;;;;614.70;2432.00;;;;;;5071855;28;20334;-67
2022/07/02 01:57:23;;;;;;;;;;;614.60;2432.00;;;;;;5071494;28;19914;-57
2022/07/02 01:59:48;;;;;;;;;;;614.40;2432.00;;;;;;5071684;28;19920;-57
2022/07/02 02:02:14;;;;;;;;;;;589.70;2432.00;;;;;;5071885;28;19912;-66
2022/07/02 02:04:39;;;;;;;;;;;614.40;2432.00;;;;;;5071647;28;19908;-59
2022/07/02 02:07:05;;;;;;;;;;;614.80;2432.00;;;;;;5071285;28;19904;-64
2022/07/02 02:09:31;;;;;;;;;;;614.90;2432.00;;;;;;5071502;28;19904;-61
2022/07/02 02:11:57;;;;;;;;;;;615.00;2432.00;;;;;;5071575;28;19977;-58
2022/07/02 02:14:22;;;;;;;;;;;615.00;2432.00;;;;;;5071615;28;19958;-58
2022/07/02 02:16:48;;;;;;;;;;;615.00;2432.00;;;;;;5071505;28;20383;-64
2022/07/02 02:19:14;;;;;;;;;;;615.10;2432.00;;;;;;5071405;28;19915;-61
2022/07/02 02:21:40;;;;;;;;;;;615.10;2432.00;;;;;;5070809;28;19910;-59
2022/07/02 02:24:06;;;;;;;;;;;615.00;2432.00;;;;;;5071401;28;19912;-60
2022/07/02 02:26:31;;;;;;;;;;;615.00;2432.00;;;;;;5071310;28;19909;-58
2022/07/02 02:28:57;;;;;;;;;;;615.00;2432.00;;;;;;5071322;28;20428;-64
2022/07/02 02:31:23;;;;;;;;;;;615.00;2432.00;;;;;;5071431;28;20285;-58
2022/07/02 02:33:49;;;;;;;;;;;615.00;2432.00;;;;;;5071158;28;20255;-59
2022/07/02 02:36:14;;;;;;;;;;;615.10;2432.00;;;;;;5071304;28;20329;-64
2022/07/02 02:38:40;;;;;;;;;;;615.10;2432.00;;;;;;5071085;28;19905;-57
2022/07/02 02:41:07;;;;;;;;;;;615.10;2432.00;;;;;;5071103;28;20374;-58
2022/07/02 02:43:33;;;;;;;;;;;615.00;2432.00;;;;;;5070954;28;20386;-58
2022/07/02 02:45:59;;;;;;;;;;;615.00;2432.00;;;;;;5071054;28;20338;-59
2022/07/02 02:48:24;;;;;;;;;;;615.00;2432.00;;;;;;5071133;28;19908;-64
2022/07/02 02:50:50;;;;;;;;;;;615.00;2432.00;;;;;;5070891;28;19904;-58
2022/07/02 02:53:15;;;;;;;;;;;615.00;2432.00;;;;;;5070949;28;19904;-58
2022/07/02 02:55:41;;;;;;;;;;;615.00;2432.00;;;;;;5070732;28;19936;-57
2022/07/02 02:58:07;;;;;;;;;;;614.90;2432.00;;;;;;5070584;28;19908;-58
2022/07/02 03:00:32;;;;;;;;;;;614.90;2432.00;;;;;;5070592;28;19924;-58
2022/07/02 03:02:58;;;;;;;;;;;614.90;2432.00;;;;;;5070730;28;19920;-62
2022/07/02 03:05:24;;;;;;;;;;;615.00;2432.00;;;;;;5070622;28;19926;-58
2022/07/02 03:07:50;;;;;;;;;;;614.90;2432.00;;;;;;5070476;28;19904;-57
2022/07/02 03:10:15;;;;;;;;;;;615.00;2432.00;;;;;;5070718;28;19905;-63
2022/07/02 03:12:41;;;;;;;;;;;614.90;2432.00;;;;;;5070404;28;19911;-61
2022/07/02 03:15:07;;;;;;;;;;;614.90;2432.00;;;;;;5070677;28;19904;-58
2022/07/02 03:17:32;;;;;;;;;;;615.00;2432.00;;;;;;5070261;28;19915;-58
2022/07/02 03:19:58;;;;;;;;;;;615.10;2432.00;;;;;;5070656;28;19915;-63
2022/07/02 03:22:23;;;;;;;;;;;615.10;2432.00;;;;;;5070276;28;19957;-63
2022/07/02 03:24:49;;;;;;;;;;;615.00;2432.00;;;;;;5070718;28;19904;-58
2022/07/02 03:27:15;;;;;;;;;;;615.10;2432.00;;;;;;5070405;28;20361;-61
2022/07/02 03:29:40;;;;;;;;;;;615.10;2432.00;;;;;;5070324;28;19988;-60
2022/07/02 03:32:06;;;;;;;;;;;615.10;2432.00;;;;;;5069686;28;19943;-63
2022/07/02 03:34:32;;;;;;;;;;;615.10;2432.00;;;;;;5070255;28;19962;-60
2022/07/02 03:36:57;;;;;;;;;;;615.10;2432.00;;;;;;5070466;28;19911;-58
2022/07/02 03:39:23;;;;;;;;;;;615.20;2432.00;;;;;;5070363;28;19926;-58
2022/07/02 03:41:48;;;;;;;;;;;615.30;2432.00;;;;;;5070103;28;19958;-58
2022/07/02 03:44:14;;;;;;;;;;;615.30;2432.00;;;;;;5070358;28;19911;-57
2022/07/02 03:46:39;;;;;;;;;;;615.30;2432.00;;;;;;5070268;28;19908;-63
2022/07/02 03:49:05;;;;;;;;;;;640.00;2432.00;;;;;;5070394;28;20277;-57
2022/07/02 03:51:31;;;;;;;;;;;640.10;2432.00;;;;;;5070161;28;19904;-63
2022/07/02 03:53:56;;;;;;;;;;;640.10;2432.00;;;;;;5070306;28;19912;-65
2022/07/02 03:56:22;;;;;;;;;;;640.20;2432.00;;;;;;5070482;28;19908;-64
2022/07/02 03:58:47;;;;;;;;;;;640.30;2432.00;;;;;;5069985;28;19916;-64
2022/07/02 04:01:13;;;;;;;;;;;640.40;2432.00;;;;;;5069936;28;20493;-63
2022/07/02 04:03:38;;;;;;;;;;;640.50;2432.00;;;;;;5070189;28;19912;-63
2022/07/02 04:06:04;;;;;;;;;;;640.50;2432.00;;;;;;5070381;28;19905;-62
2022/07/02 04:08:29;;;;;;;;;;;640.50;2432.00;;;;;;5070283;28;19910;-58
2022/07/02 04:10:55;;;;;;;;;;;640.60;2432.00;;;;;;5070129;28;19915;-60
2022/07/02 04:13:20;;;;;;;;;;;640.80;2432.00;;;;;;5069946;28;20346;-58
2022/07/02 04:15:46;;;;;;;;;;;640.80;2432.00;;;;;;5069957;28;19911;-58
2022/07/02 04:18:12;;;;;;;;;;;640.70;2432.00;;;;;;5069728;28;19911;-62
2022/07/02 04:20:37;;;;;;;;;;;665.60;2432.00;;;;;;5070148;28;19911;-58
2022/07/02 04:23:03;;;;;;;;;;;665.70;2432.00;;;;;;5069873;28;19912;-57
2022/07/02 04:25:28;;;;;;;;;;;665.90;2432.00;;;;;;5069835;28;19939;-62
2022/07/02 04:27:54;;;;;;;;;;;666.00;2432.00;;;;;;5069814;28;19935;-61
2022/07/02 04:30:20;;;;;;;;;;;666.20;2432.00;;;;;;5069759;28;19950;-58
2022/07/02 04:32:45;;;;;;;;;;;666.30;2432.00;;;;;;5069849;28;20243;-58
2022/07/02 04:35:11;;;;;;;;;;;691.20;2432.00;;;;;;5069690;28;19999;-58
2022/07/02 04:37:37;;;;;;;;;;;717.20;2304.00;;;;;;5069848;28;19904;-62
2022/07/02 04:40:03;;;;;;;;;;;768.10;2048.00;;;;;;5069927;28;19908;-61
2022/07/02 04:42:29;;;;;;;;;;;794.00;1920.00;;;;;;5069435;28;20028;-61
2022/07/02 04:44:55;;;;;;;;;;;844.90;1766.40;;;;;;5072881;28;19996;-58
2022/07/02 04:47:21;;;;;;;;;;;845.70;1664.00;;;;;;5072954;28;19947;-63
2022/07/02 04:49:46;;;;;;;;;;;871.10;1561.60;;;;;;5073420;28;19908;-63
2022/07/02 04:52:12;;;;;;;;;;;896.10;1510.40;;;;;;5073304;28;19908;-58
2022/07/02 04:54:38;;;;;;;;;;;921.80;1459.20;;;;;;5073288;28;20266;-56
2022/07/02 04:57:03;;;;;;;;;;;947.20;1382.40;;;;;;5072943;28;19911;-58
2022/07/02 04:59:29;;;;;;;;;;;922.20;1408.00;;;;;;5072754;28;20397;-59
2022/07/02 05:01:54;;;;;;;;;;;922.00;1408.00;;;;;;5072900;28;20397;-58
2022/07/02 05:04:20;;;;;;;;;;;947.50;1356.80;;;;;;5072997;28;19904;-58
2022/07/02 05:06:46;;;;;;;;;;;972.90;1331.20;;;;;;5072963;28;20270;-58
2022/07/02 05:09:11;;;;;;;;;;;973.00;1305.60;;;;;;5072652;28;19905;-62
2022/07/02 05:11:37;;;;;;;;;;;973.00;1305.60;;;;;;5072739;28;20376;-62
2022/07/02 05:14:02;;;;;;;;;;;947.80;1305.60;;;;;;5072793;28;19909;-58
2022/07/02 05:16:28;;;;;;;;;;;896.00;1433.60;;;;;;5072833;28;19911;-59
2022/07/02 05:18:54;;;;;;;;;;;845.60;1536.00;;;;;;5072353;28;19934;-59
2022/07/02 05:21:19;;;;;;;;;;;819.90;1561.60;;;;;;5072473;28;19914;-58
2022/07/02 05:23:45;;;;;;;;;;;794.20;1638.40;;;;;;5072464;28;20300;-58
2022/07/02 05:26:10;;;;;;;;;;;768.80;1689.60;;;;;;5072430;28;19904;-58
2022/07/02 05:28:36;;;;;;;;;;;768.20;1715.20;;;;;;5072522;28;20369;-59
2022/07/02 05:31:02;;;;;;;;;;;768.00;1766.40;;;;;;5072456;28;20332;-59
2022/07/02 05:33:27;;;;;;;;;;;742.90;1792.00;;;;;;5072828;28;20274;-63
2022/07/02 05:35:53;;;;;;;;;;;742.60;1843.20;;;;;;5072476;28;20342;-59
2022/07/02 05:38:18;;;;;;;;;;;742.40;1843.20;;;;;;5072639;28;20521;-63
2022/07/02 05:40:44;;;;;;;;;;;742.40;1868.80;;;;;;5071681;28;19962;-64
2022/07/02 05:43:10;;;;;;;;;;;717.50;1843.20;;;;;;5070717;28;20247;-62
2022/07/02 05:45:35;;;;;;;;;;;717.70;1843.20;;;;;;5070646;28;19908;-63
2022/07/02 05:48:01;;;;;;;;;;;742.50;1843.20;;;;;;5070504;28;20318;-61
2022/07/02 05:50:26;;;;;;;;;;;742.70;1843.20;;;;;;5072064;28;20407;-59
2022/07/02 05:52:52;;;;;;;;;;;768.00;1792.00;;;;;;5071898;28;20293;-59
2022/07/02 05:55:17;;;;;;;;;;;768.90;1740.80;;;;;;5071109;28;19904;-63
2022/07/02 05:57:43;;;;;;;;;;;819.80;1638.40;;;;;;5071723;28;19995;-59
2022/07/02 06:00:10;;;;;;;;;;;845.50;1561.60;;;;;;5071806;28;19920;-59
2022/07/02 06:02:36;;;;;;;;;;;871.10;1510.40;;;;;;5071633;28;20042;-60
2022/07/02 06:07:38;;;;;;;;;;;922.30;1408.00;;;;;;5071613;28;20373;-59
2022/07/02 06:07:52;;;;;;;;;;;947.60;1331.20;;;;;;5071428;28;20354;-59
2022/07/02 06:10:20;;;;;;;;;;;973.60;1280.00;;;;;;5071701;28;20003;-63
2022/07/02 06:12:47;;;;;;;;;;;1024.20;1228.80;;;;;;5071616;28;19911;-59
2022/07/02 06:15:13;;;;;;;;;;;1024.30;1203.20;;;;;;5071247;28;20003;-59
2022/07/02 06:17:38;;;;;;;;;;;973.60;1254.40;;;;;;5071412;28;19951;-61
2022/07/02 06:20:04;;;;;;;;;;;947.50;1331.20;;;;;;5071251;28;19904;-60
2022/07/02 06:22:29;;;;;;;;;;;921.90;1382.40;;;;;;5071304;28;19912;-60
2022/07/02 06:24:55;;;;;;;;;;;922.30;1356.80;;;;;;5071384;28;19954;-57
2022/07/02 06:27:21;;;;;;;;;;;922.40;1305.60;;;;;;5071090;28;19995;-59
2022/07/02 06:29:48;;;;;;;;;;;896.00;1356.80;;;;;;5053391;28;20320;-60
2022/07/02 06:32:16;;;;;;;;;;;870.90;1459.20;;;;;;5070751;28;19909;-59
2022/07/02 06:34:42;;;;;;;;;;;870.70;1484.80;;;;;;5070835;28;19905;-57
2022/07/02 06:37:07;;;;;;;;;;;870.90;1510.40;;;;;;5071086;28;19911;-60
2022/07/02 06:39:33;;;;;;;;;;;896.00;1484.80;;;;;;5070785;28;19904;-63
2022/07/02 06:44:42;;;;;;;;;;;896.00;1459.20;;;;;;5071164;28;19918;-60
2022/07/02 06:47:08;;;;;;;;;;;870.70;1536.00;;;;;;5070908;28;19908;-62
2022/07/02 06:49:33;;;;;;;;;;;845.30;1612.80;;;;;;5070724;28;19905;-59
2022/07/02 06:51:59;;;;;;;;;;;819.90;1612.80;;;;;;5052592;28;19904;-59
2022/07/02 06:54:24;;;;;;;;;;;819.20;1664.00;;;;;;5070982;28;19908;-62
2022/07/02 06:56:50;;;;;;;;;;;794.20;1689.60;;;;;;5070702;28;20314;-62
2022/07/02 06:59:15;;;;;;;;;;;793.90;1740.80;;;;;;5070525;28;19916;-63
2022/07/02 07:01:41;;;;;;;;;;;768.70;1689.60;;;;;;5070514;28;19912;-59
2022/07/02 07:04:06;;;;;;;;;;;768.40;1689.60;;;;;;5070908;28;20373;-62
2022/07/02 07:06:35;;;;;;;;;;;768.00;1715.20;;;;;;5070694;28;20239;-59
2022/07/02 07:09:01;;;;;;;;;;;742.90;1843.20;;;;;;5070598;28;19957;-58
2022/07/02 07:11:27;;;;;;;;;;;742.80;1868.80;;;;;;5070651;28;19904;-58
2022/07/02 07:13:52;;;;;;;;;;;742.40;1945.60;;;;;;5070509;28;19909;-58
2022/07/02 07:16:18;;;;;;;;;;;717.50;1996.80;;;;;;5070591;28;19904;-58
2022/07/02 07:19:00;;;;;;;;;;;717.60;1971.20;;;;;;5070524;28;19905;-59
2022/07/02 07:21:25;;;;;;;;;;;742.50;1971.20;;;;;;5070500;28;19909;-63
2022/07/02 07:23:51;;;;;;;;;;;742.80;1945.60;;;;;;5070292;28;20046;-58
2022/07/02 07:26:17;;;;;;;;;;;742.80;1920.00;;;;;;5070439;28;19905;-58
2022/07/02 07:28:43;;;;;;;;;;;743.00;1945.60;;;;;;5070574;28;20358;-58
2022/07/02 07:31:08;;;;;;;;;;;768.00;1894.40;;;;;;5070486;28;19912;-62
2022/07/02 07:33:34;;;;;;;;;;;768.30;1868.80;;;;;;5070075;28;19912;-60
2022/07/02 07:36:00;;;;;;;;;;;768.10;1894.40;;;;;;5070539;28;19958;-62
2022/07/02 07:38:25;;;;;;;;;;;742.90;1920.00;;;;;;5070421;28;19944;-58
2022/07/02 07:40:51;;;;;;;;;;;742.60;1920.00;;;;;;5070299;28;19904;-63
2022/07/02 07:43:16;;;;;;;;;;;742.50;1945.60;;;;;;5070382;28;19912;-63
2022/07/02 07:45:42;;;;;;;;;;;742.40;1971.20;;;;;;5069977;28;20247;-58
2022/07/02 07:48:08;;;;;;;;;;;717.50;1971.20;;;;;;5070579;28;19905;-58
2022/07/02 07:50:33;;;;;;;;;;;717.30;1971.20;;;;;;5067488;28;19904;-63
2022/07/02 07:52:59;;;;;;;;;;;717.40;1971.20;;;;;;5068876;28;20011;-61
2022/07/02 07:55:24;;;;;;;;;;;742.40;1945.60;;;;;;5068634;28;19987;-61
2022/07/02 07:57:50;;;;;;;;;;;742.60;1920.00;;;;;;5068314;28;19909;-59
2022/07/02 08:00:16;;;;;;;;;;;742.80;1920.00;;;;;;5068430;28;19965;-58
2022/07/02 08:02:41;;;;;;;;;;;743.00;1894.40;;;;;;5067664;28;19966;-58
2022/07/02 08:05:07;;;;;;;;;;;743.10;1868.80;;;;;;5068485;28;20375;-61
2022/07/02 08:07:36;;;;;;;;;;;743.20;1868.80;;;;;;5052365;28;19908;-58
2022/07/02 08:10:03;;;;;;;;;;;768.60;1817.60;;;;;;5070271;28;19998;-62
2022/07/02 08:12:28;;;;;;;;;;;794.50;1740.80;;;;;;5070169;28;19905;-58
2022/07/02 08:14:54;;;;;;;;;;;794.50;1740.80;;;;;;5069839;28;19904;-57
2022/07/02 08:17:19;;;;;;;;;;;819.60;1664.00;;;;;;5069896;28;19905;-59
2022/07/02 08:19:45;;;;;;;;;;;794.40;1715.20;;;;;;5073022;28;20346;-58
2022/07/02 08:22:10;;;;;;;;;;;793.70;1792.00;;;;;;5073340;28;19989;-58
2022/07/02 08:24:36;;;;;;;;;;;793.80;1766.40;;;;;;5073765;28;19912;-62
2022/07/02 08:27:01;;;;;;;;;;;768.60;1792.00;;;;;;5073604;28;20362;-65
2022/07/02 08:29:27;;;;;;;;;;;768.60;1792.00;;;;;;5073410;28;19908;-60
2022/07/02 08:31:53;;;;;;;;;;;768.10;1817.60;;;;;;5073354;28;19958;-57
2022/07/02 08:34:18;;;;;;;;;;;768.10;1843.20;;;;;;5073440;28;20347;-66
2022/07/02 08:36:44;;;;;;;;;;;768.10;1843.20;;;;;;5073226;28;19904;-65
2022/07/02 08:39:09;;;;;;;;;;;768.40;1792.00;;;;;;5073445;28;19905;-58
2022/07/02 08:41:35;;;;;;;;;;;768.10;1766.40;;;;;;5073596;28;19905;-58
2022/07/02 08:44:02;;;;;;;;;;;768.10;1792.00;;;;;;5073117;28;19919;-58
2022/07/02 08:46:28;;;;;;;;;;;768.60;1766.40;;;;;;5073331;28;19911;-57
2022/07/02 08:48:55;;;;;;;;;;;793.60;1817.60;;;;;;5072881;28;20251;-66
2022/07/02 08:51:21;;;;;;;;;;;768.60;1740.80;;;;;;5073297;28;19993;-59
2022/07/02 08:53:46;;;;;;;;;;;768.80;1740.80;;;;;;5073090;28;19909;-63
2022/07/02 08:56:13;;;;;;;;;;;768.90;1740.80;;;;;;5072982;28;19916;-60
2022/07/02 08:58:39;;;;;;;;;;;768.70;1740.80;;;;;;5072779;28;19940;-58
2022/07/02 09:01:05;;;;;;;;;;;768.90;1740.80;;;;;;5073210;28;20052;-58
2022/07/02 09:03:32;;;;;;;;;;;768.90;1715.20;;;;;;5072771;28;19919;-57
2022/07/02 09:05:57;;;;;;;;;;;768.90;1715.20;;;;;;5072947;28;19904;-65
2022/07/02 09:08:23;;;;;;;;;;;793.70;1740.80;;;;;;5072775;28;19946;-64
2022/07/02 09:10:51;;;;;;;;;;;793.60;1740.80;;;;;;5072832;28;19905;-64
2022/07/02 09:13:17;;;;;;;;;;;768.80;1715.20;;;;;;5072852;28;19905;-66
2022/07/02 09:15:43;;;;;;;;;;;793.70;1740.80;;;;;;5072628;28;20356;-59
2022/07/02 09:18:09;;;;;;;;;;;793.70;1715.20;;;;;;5072626;28;19905;-65
2022/07/02 09:20:34;;;;;;;;;;;793.80;1715.20;;;;;;5072654;28;19919;-57
2022/07/02 09:23:00;;;;;;;;;;;793.70;1715.20;;;;;;5072473;28;19967;-58
2022/07/02 09:25:27;;;;;;;;;;;793.60;1740.80;;;;;;5072625;28;19904;-66
2022/07/02 09:28:00;;;;;;;;;;;794.00;1715.20;;;;;;5072105;28;20007;-58
2022/07/02 09:30:28;;;;;;;;;;;794.20;1689.60;;;;;;5070977;28;20040;-58
2022/07/02 09:33:28;;;;;;;;;;;794.10;1715.20;;;;;;5071971;28;20375;-58
2022/07/02 09:35:39;;;;;;;;;;;794.10;1689.60;;;;;;5072396;28;19948;-66
2022/07/02 09:38:09;;;;;;;;;;;793.90;1715.20;;;;;;5072602;28;19911;-58
2022/07/02 09:40:35;;;;;;;;;;;793.90;1715.20;;;;;;5072554;28;19904;-59
2022/07/02 09:43:00;;;;;;;;;;;794.20;1689.60;;;;;;5072070;28;19919;-58
2022/07/02 09:45:26;;;;;;;;;;;794.00;1715.20;;;;;;5072173;28;19991;-58
2022/07/02 09:47:53;;;;;;;;;;;794.20;1689.60;;;;;;5072034;28;19911;-57
2022/07/02 09:50:19;;;;;;;;;;;794.10;1664.00;;;;;;5072201;28;19919;-62
2022/07/02 09:52:51;;;;;;;;;;;794.00;1689.60;;;;;;5072265;28;19911;-57
2022/07/02 09:55:18;;;;;;;;;;;794.00;1664.00;;;;;;5072135;28;19904;-58
2022/07/02 09:57:50;;;;;;;;;;;794.10;1664.00;;;;;;5071727;28;19909;-57
2022/07/02 10:00:16;;;;;;;;;;;793.90;1689.60;;;;;;5069922;28;19927;-61
2022/07/02 10:02:42;;;;;;;;;;;794.00;1689.60;;;;;;5069877;28;20359;-61
2022/07/02 10:05:07;;;;;;;;;;;793.90;1689.60;;;;;;5070070;28;19959;-58
2022/07/02 10:07:33;;;;;;;;;;;794.10;1715.20;;;;;;5069984;28;19904;-62
2022/07/02 10:10:01;;;;;;;;;;;794.10;1715.20;;;;;;5070035;28;20342;-58
2022/07/02 10:12:28;;;;;;;;;;;794.20;1715.20;;;;;;5070163;28;19948;-64
2022/07/02 10:14:54;;;;;;;;;;;794.20;1715.20;;;;;;5069506;28;19908;-57
2022/07/02 10:17:20;;;;;;;;;;;794.00;1715.20;;;;;;5069731;28;20003;-59
2022/07/02 10:19:46;;;;;;;;;;;794.20;1689.60;;;;;;5069906;28;19904;-64
2022/07/02 10:22:12;;;;;;;;;;;794.10;1715.20;;;;;;5069487;28;20398;-61
2022/07/02 10:24:38;;;;;;;;;;;794.10;1715.20;;;;;;5068849;28;19912;-67
2022/07/02 10:27:04;;;;;;;;;;;768.90;1689.60;;;;;;5067911;28;19983;-57
2022/07/02 10:29:29;;;;;;;;;;;768.70;1689.60;;;;;;5068237;28;20587;-63
2022/07/02 10:32:01;;;;;;;;;;;768.90;1715.20;;;;;;5068314;28;19980;-57
2022/07/02 10:34:50;;;;;;;;;;;768.40;1740.80;;;;;;5069811;28;19904;-66
2022/07/02 10:37:16;;;;;;;;;;;768.30;1740.80;;;;;;5069921;28;19905;-66
2022/07/02 10:39:42;;;;;;;;;;;768.10;1715.20;;;;;;5069663;28;19911;-58
2022/07/02 10:42:09;;;;;;;;;;;743.30;1740.80;;;;;;5069486;28;19904;-60
2022/07/02 10:44:38;;;;;;;;;;;742.80;1766.40;;;;;;5070281;28;19912;-62
2022/07/02 10:47:05;;;;;;;;;;;742.90;1792.00;;;;;;5064700;28;19908;-58
2022/07/02 10:49:31;;;;;;;;;;;742.70;1817.60;;;;;;5069294;28;19927;-58
2022/07/02 10:51:59;;;;;;;;;;;742.40;1817.60;;;;;;5069438;28;19904;-59
2022/07/02 10:54:32;;;;;;;;;;;742.40;1817.60;;;;;;5069646;28;19908;-58
2022/07/02 10:56:57;;;;;;;;;;;717.40;1792.00;;;;;;5066163;28;19909;-63
2022/07/02 10:59:24;;;;;;;;;;;717.00;1843.20;;;;;;5069341;28;19959;-57
2022/07/02 11:02:06;;;;;;;;;;;716.90;1792.00;;;;;;5070287;28;19904;-58
2022/07/02 11:04:31;;;;;;;;;;;716.80;1792.00;;;;;;5070468;28;19959;-60
2022/07/02 11:07:11;;;;;;;;;;;691.90;1766.40;;;;;;5070635;28;19908;-61
2022/07/02 11:09:50;;;;;;;;;;;691.80;1766.40;;;;;;5070548;28;20380;-57
2022/07/02 11:12:27;;;;;;;;;;;691.80;1792.00;;;;;;5070486;28;19942;-62
2022/07/02 11:14:54;;;;;;;;;;;691.80;1792.00;;;;;;5070502;28;19915;-60
2022/07/02 11:17:20;;;;;;;;;;;691.80;1817.60;;;;;;5070254;28;20361;-59
2022/07/02 11:19:50;;;;;;;;;;;691.90;1792.00;;;;;;5070322;28;19919;-62
2022/07/02 11:22:15;;;;;;;;;;;692.00;1792.00;;;;;;5070354;28;19916;-59
2022/07/02 11:24:43;;;;;;;;;;;716.80;1843.20;;;;;;5070432;28;20282;-58
2022/07/02 11:27:09;;;;;;;;;;;717.10;1817.60;;;;;;5069865;28;19915;-62
2022/07/02 11:29:34;;;;;;;;;;;717.40;1792.00;;;;;;5070226;28;19912;-58
2022/07/02 11:32:00;;;;;;;;;;;717.20;1792.00;;;;;;5069940;28;19958;-61
2022/07/02 11:34:29;;;;;;;;;;;717.20;1792.00;;;;;;5069654;28;19963;-62
2022/07/02 11:36:55;;;;;;;;;;;717.30;1817.60;;;;;;5069915;28;19995;-63
2022/07/02 11:39:21;;;;;;;;;;;717.20;1817.60;;;;;;5070011;28;19948;-59
2022/07/02 11:41:47;;;;;;;;;;;717.20;1792.00;;;;;;5070245;28;19908;-63
2022/07/02 11:44:15;;;;;;;;;;;717.20;1817.60;;;;;;5069886;28;19963;-58
2022/07/02 11:46:42;;;;;;;;;;;717.20;1766.40;;;;;;5070089;28;20355;-57
2022/07/02 11:49:15;;;;;;;;;;;717.10;1817.60;;;;;;5070197;28;20358;-63
2022/07/02 11:51:41;;;;;;;;;;;717.10;1868.80;;;;;;5070175;28;19916;-58
2022/07/02 11:54:07;;;;;;;;;;;717.20;1843.20;;;;;;5072105;28;19905;-63
2022/07/02 11:56:35;;;;;;;;;;;717.40;1868.80;;;;;;5074067;28;19915;-57
2022/07/02 11:59:01;;;;;;;;;;;717.70;1868.80;;;;;;5073789;28;19916;-60
2022/07/02 12:01:28;;;;;;;;;;;717.70;1843.20;;;;;;5074046;28;19909;-61
2022/07/02 12:03:55;;;;;;;;;;;717.60;1868.80;;;;;;5073608;28;19962;-58
2022/07/02 12:06:21;;;;;;;;;;;742.40;1920.00;;;;;;5073830;28;20439;-57
2022/07/02 12:08:50;;;;;;;;;;;742.60;1894.40;;;;;;5073371;28;20247;-61
2022/07/02 12:11:17;;;;;;;;;;;742.70;1894.40;;;;;;5073861;28;19908;-62
2022/07/02 12:13:43;;;;;;;;;;;742.80;1894.40;;;;;;5073735;28;20301;-62
2022/07/02 12:16:12;;;;;;;;;;;743.00;1945.60;;;;;;5073852;28;19947;-62
2022/07/02 12:18:38;;;;;;;;;;;742.80;1894.40;;;;;;5073578;28;20315;-62
2022/07/02 12:21:08;;;;;;;;;;;742.90;1868.80;;;;;;5073516;28;19943;-58
2022/07/02 12:23:44;;;;;;;;;;;742.90;1868.80;;;;;;5073453;28;19956;-59
2022/07/02 12:26:10;;;;;;;;;;;743.00;1894.40;;;;;;5073403;28;19905;-58
2022/07/02 12:31:20;;;;;;;;;;;743.00;1868.80;;;;;;5073603;28;19954;-58
2022/07/02 12:33:53;;;;;;;;;;;743.00;1843.20;;;;;;5073496;28;19908;-57
2022/07/02 12:36:19;;;;;;;;;;;743.10;1868.80;;;;;;5073637;28;19904;-57
2022/07/02 12:38:44;;;;;;;;;;;743.10;1894.40;;;;;;5073518;28;20338;-57
2022/07/02 12:41:10;;;;;;;;;;;743.10;1868.80;;;;;;5073409;28;20305;-57
2022/07/02 12:43:36;;;;;;;;;;;743.10;1868.80;;;;;;5073541;28;19920;-58
2022/07/02 12:46:05;;;;;;;;;;;743.00;1843.20;;;;;;5073440;28;19905;-62
2022/07/02 12:48:31;;;;;;;;;;;743.10;1868.80;;;;;;5073177;28;20324;-58
2022/07/02 12:50:58;;;;;;;;;;;743.10;1868.80;;;;;;5073344;28;19904;-58
2022/07/02 12:53:24;;;;;;;;;;;743.10;1894.40;;;;;;5073319;28;19932;-58
2022/07/02 12:55:58;;;;;;;;;;;743.20;1843.20;;;;;;5072976;28;19904;-58
2022/07/02 12:58:24;;;;;;;;;;;743.20;1843.20;;;;;;5072591;28;20343;-62
2022/07/02 13:00:50;;;;;;;;;;;743.20;1843.20;;;;;;5072802;28;19916;-58
2022/07/02 13:03:16;;;;;;;;;;;743.30;1817.60;;;;;;5073126;28;20120;-58
2022/07/02 13:05:43;;;;;;;;;;;743.30;1843.20;;;;;;5072522;28;19944;-57
2022/07/02 13:08:09;;;;;;;;;;;768.10;1843.20;;;;;;5072828;28;19991;-63
2022/07/02 13:10:35;;;;;;;;;;;768.10;1817.60;;;;;;5073126;28;19954;-58
2022/07/02 13:13:00;;;;;;;;;;;768.30;1843.20;;;;;;5072848;28;19982;-57
2022/07/02 13:15:26;;;;;;;;;;;768.30;1843.20;;;;;;5072757;28;19904;-58
2022/07/02 13:17:52;;;;;;;;;;;768.40;1894.40;;;;;;5072616;28;20381;-57
2022/07/02 13:20:17;;;;;;;;;;;768.40;1868.80;;;;;;5072809;28;19904;-62
2022/07/02 13:22:43;;;;;;;;;;;768.40;1843.20;;;;;;5072577;28;19959;-59
2022/07/02 13:25:10;;;;;;;;;;;768.40;1868.80;;;;;;5072463;28;20309;-63
2022/07/02 13:27:37;;;;;;;;;;;768.40;1868.80;;;;;;5072447;28;19908;-60
2022/07/02 13:30:03;;;;;;;;;;;768.30;1868.80;;;;;;5072410;28;19952;-58
2022/07/02 13:32:28;;;;;;;;;;;768.30;1868.80;;;;;;5072264;28;19959;-63
2022/07/02 13:34:54;;;;;;;;;;;768.40;1894.40;;;;;;5072214;28;19905;-63
2022/07/02 13:37:20;;;;;;;;;;;768.20;1920.00;;;;;;5072391;28;19994;-58
2022/07/02 13:39:48;;;;;;;;;;;768.40;1920.00;;;;;;5072136;28;20346;-64
2022/07/02 13:42:14;;;;;;;;;;;768.40;1894.40;;;;;;5072014;28;19954;-58
2022/07/02 13:44:40;;;;;;;;;;;768.50;1894.40;;;;;;5071987;28;19912;-59
2022/07/02 13:47:05;;;;;;;;;;;768.50;1868.80;;;;;;5072145;28;20278;-59